Time;durP1;ratioP1;P1;durP2;ratioP2;P2;SDS_P1;SDS_P2;PMS_P1;PMS_P2;Temp;Humidity;BMP_temperature;BMP_pressure;BME280_temperature;BME280_humidity;BME280_pressure;Samples;Min_cycle;Max_cycle;Signal;HPM_P1;HPM_P2
2022/07/30 00:01:52;;;;;;;2.63;2.43;;;20.40;86.20;;;;;;5012859;28;20674;-65
2022/07/30 00:04:18;;;;;;;3.60;1.90;;;20.40;86.30;;;;;;5013206;28;20185;-65
2022/07/30 00:06:44;;;;;;;2.10;1.87;;;20.40;86.60;;;;;;5013065;28;20583;-64
2022/07/30 00:09:09;;;;;;;1.97;1.77;;;20.30;86.70;;;;;;5013221;28;20415;-64
2022/07/30 00:11:35;;;;;;;3.17;2.07;;;20.30;87.10;;;;;;5013425;28;20201;-65
2022/07/30 00:14:01;;;;;;;4.20;1.53;;;20.30;87.30;;;;;;5013413;28;20180;-64
2022/07/30 00:16:26;;;;;;;2.10;1.83;;;20.30;87.70;;;;;;5012914;28;20268;-64
2022/07/30 00:18:52;;;;;;;1.83;1.73;;;20.20;87.70;;;;;;5012964;28;20178;-64
2022/07/30 00:21:18;;;;;;;5.20;2.10;;;20.20;88.30;;;;;;5012806;28;20209;-64
2022/07/30 00:23:43;;;;;;;3.30;1.83;;;20.10;88.50;;;;;;5013066;28;20177;-64
2022/07/30 00:26:09;;;;;;;3.90;2.20;;;20.10;88.70;;;;;;5012516;28;20845;-65
2022/07/30 00:28:34;;;;;;;3.13;2.47;;;20.10;89.00;;;;;;5013007;28;20545;-65
2022/07/30 00:31:01;;;;;;;3.00;1.90;;;20.00;89.40;;;;;;5012833;28;20279;-64
2022/07/30 00:33:26;;;;;;;3.77;1.80;;;20.00;89.80;;;;;;5012675;28;20619;-65
2022/07/30 00:35:52;;;;;;;2.53;2.00;;;19.90;90.00;;;;;;5012541;28;20439;-65
2022/07/30 00:38:17;;;;;;;2.47;1.90;;;19.90;90.10;;;;;;5012625;28;20181;-65
2022/07/30 00:40:46;;;;;;;4.30;1.50;;;19.90;90.20;;;;;;5012782;28;20538;-65
2022/07/30 00:43:15;;;;;;;2.27;1.77;;;19.90;90.40;;;;;;5012651;28;20231;-65
2022/07/30 00:45:42;;;;;;;3.90;2.17;;;19.80;90.40;;;;;;5012268;28;20541;-65
2022/07/30 00:48:09;;;;;;;1.90;1.57;;;19.80;90.60;;;;;;5012124;28;20410;-65
2022/07/30 00:50:34;;;;;;;2.13;1.90;;;19.80;90.70;;;;;;5012894;28;20509;-65
2022/07/30 00:53:00;;;;;;;2.27;1.97;;;19.80;90.80;;;;;;5012699;28;20979;-65
2022/07/30 00:55:25;;;;;;;3.10;2.00;;;19.70;90.90;;;;;;5012189;28;20182;-64
2022/07/30 00:57:51;;;;;;;5.50;2.27;;;19.70;91.00;;;;;;5012613;28;20270;-66
2022/07/30 01:00:16;;;;;;;2.30;2.10;;;19.70;91.10;;;;;;5012570;28;20195;-65
2022/07/30 01:02:42;;;;;;;4.33;2.20;;;19.70;91.30;;;;;;5012705;28;20178;-64
2022/07/30 01:05:08;;;;;;;4.20;1.90;;;19.70;91.40;;;;;;5012369;28;20173;-65
2022/07/30 01:07:34;;;;;;;2.37;1.87;;;19.60;91.50;;;;;;5012793;28;20202;-65
2022/07/30 01:10:01;;;;;;;2.13;1.73;;;19.60;91.60;;;;;;5012899;28;20454;-65
2022/07/30 01:12:27;;;;;;;4.90;2.23;;;19.60;91.70;;;;;;5012185;28;20183;-65
2022/07/30 01:14:56;;;;;;;3.00;2.20;;;19.60;91.80;;;;;;5012332;28;20464;-64
2022/07/30 01:17:21;;;;;;;2.40;2.20;;;19.50;91.90;;;;;;5012342;28;20538;-65
2022/07/30 01:19:52;;;;;;;2.20;2.00;;;19.50;92.10;;;;;;5011831;28;20881;-65
2022/07/30 01:22:29;;;;;;;3.50;2.40;;;19.50;92.30;;;;;;5033888;23;20317;-72
2022/07/30 01:25:30;;;;;;;2.77;2.10;;;19.50;92.40;;;;;;5004973;28;20895;-72
2022/07/30 01:28:01;;;;;;;1.73;1.63;;;19.40;92.50;;;;;;4984937;28;20407;-72
2022/07/30 01:30:31;;;;;;;2.30;2.10;;;19.40;92.60;;;;;;5012942;28;20411;-72
2022/07/30 01:32:58;;;;;;;2.10;1.90;;;19.40;92.70;;;;;;4993257;28;20413;-73
2022/07/30 01:35:28;;;;;;;3.47;2.37;;;19.40;92.80;;;;;;4993774;28;20820;-73
2022/07/30 01:37:55;;;;;;;3.43;1.83;;;19.40;93.00;;;;;;4999576;28;20471;-72
2022/07/30 01:40:23;;;;;;;4.10;2.10;;;19.40;93.00;;;;;;4998358;28;20495;-72
2022/07/30 01:42:53;;;;;;;2.10;1.90;;;19.30;93.10;;;;;;4991112;28;20442;-72
2022/07/30 01:45:21;;;;;;;2.30;1.67;;;19.30;93.20;;;;;;4992639;28;20442;-72
2022/07/30 01:47:48;;;;;;;1.73;1.63;;;19.30;93.40;;;;;;4992858;28;20423;-72
2022/07/30 01:50:14;;;;;;;2.50;2.07;;;19.20;93.40;;;;;;4993217;28;20407;-71
2022/07/30 01:52:46;;;;;;;1.60;1.50;;;19.20;93.60;;;;;;4992711;28;20427;-72
2022/07/30 01:55:15;;;;;;;2.20;2.00;;;19.10;93.70;;;;;;4992687;28;20407;-72
2022/07/30 01:57:44;;;;;;;3.30;2.57;;;19.10;93.90;;;;;;4992976;28;20494;-73
2022/07/30 02:00:10;;;;;;;1.70;1.60;;;19.10;94.00;;;;;;4992758;28;20418;-72
2022/07/30 02:02:37;;;;;;;2.10;2.00;;;19.00;94.20;;;;;;4992331;28;20443;-73
2022/07/30 02:05:04;;;;;;;2.00;1.83;;;19.00;94.40;;;;;;4992553;28;20415;-73
2022/07/30 02:07:48;;;;;;;1.90;1.80;;;19.00;94.50;;;;;;4992873;28;21026;-73
2022/07/30 02:10:22;;;;;;;2.43;2.00;;;18.90;94.60;;;;;;4993068;28;20883;-72
2022/07/30 02:12:51;;;;;;;1.70;1.60;;;18.90;94.90;;;;;;4993088;28;20418;-73
2022/07/30 02:15:41;;;;;;;2.50;1.80;;;18.90;95.10;;;;;;4992868;28;20416;-72
2022/07/30 02:18:17;;;;;;;3.10;2.90;;;18.80;95.20;;;;;;4994506;28;20417;-72
2022/07/30 02:20:47;;;;;;;1.77;1.57;;;18.80;95.30;;;;;;4996305;28;20954;-72
2022/07/30 02:23:14;;;;;;;2.53;2.33;;;18.80;95.60;;;;;;4995546;28;20896;-74
2022/07/30 02:25:45;;;;;;;3.00;2.17;;;18.70;95.70;;;;;;4993223;28;20853;-74
2022/07/30 02:28:13;;;;;;;2.40;1.87;;;18.70;95.80;;;;;;4992748;28;20496;-73
2022/07/30 02:30:44;;;;;;;2.13;1.93;;;18.70;95.90;;;;;;4992480;28;20503;-72
2022/07/30 02:33:12;;;;;;;2.53;1.80;;;18.70;96.10;;;;;;4992585;28;20763;-73
2022/07/30 02:35:39;;;;;;;1.80;1.70;;;18.70;96.30;;;;;;4992276;28;20496;-73
2022/07/30 02:38:06;;;;;;;2.60;2.40;;;18.70;96.40;;;;;;4992557;28;20411;-73
2022/07/30 02:40:32;;;;;;;4.40;2.30;;;18.70;96.50;;;;;;4992157;28;20892;-73
2022/07/30 02:42:59;;;;;;;2.30;2.00;;;18.70;96.70;;;;;;4992271;28;20431;-73
2022/07/30 02:45:25;;;;;;;1.97;1.87;;;18.70;96.80;;;;;;4991928;28;20490;-73
2022/07/30 02:48:00;;;;;;;1.80;1.70;;;18.60;96.90;;;;;;4992329;28;20843;-73
2022/07/30 02:50:27;;;;;;;2.00;1.80;;;18.60;97.10;;;;;;4992441;28;20416;-72
2022/07/30 02:52:54;;;;;;;3.40;2.27;;;18.60;97.20;;;;;;4992305;28;20425;-72
2022/07/30 02:55:22;;;;;;;1.50;1.40;;;18.60;97.40;;;;;;4991907;28;20669;-72
2022/07/30 02:57:51;;;;;;;2.53;1.67;;;18.60;97.60;;;;;;4992186;28;20777;-72
2022/07/30 03:00:17;;;;;;;4.43;1.93;;;18.60;97.60;;;;;;4990849;28;20428;-72
2022/07/30 03:02:44;;;;;;;1.70;1.60;;;18.50;97.70;;;;;;4992073;28;20775;-72
2022/07/30 03:05:12;;;;;;;5.27;1.77;;;18.50;97.90;;;;;;4992082;28;20176;-73
2022/07/30 03:07:39;;;;;;;2.50;1.93;;;18.50;98.10;;;;;;4992094;28;20926;-72
2022/07/30 03:10:06;;;;;;;2.30;2.10;;;18.50;98.20;;;;;;4992311;28;20772;-72
2022/07/30 03:12:33;;;;;;;1.67;1.57;;;18.50;98.30;;;;;;4990606;28;20473;-72
2022/07/30 03:14:59;;;;;;;3.30;1.67;;;18.50;98.40;;;;;;4991834;28;20411;-72
2022/07/30 03:17:27;;;;;;;3.57;2.00;;;18.50;98.40;;;;;;4991733;28;20411;-72
2022/07/30 03:19:55;;;;;;;1.90;1.50;;;18.50;98.60;;;;;;4991984;28;20168;-72
2022/07/30 03:22:23;;;;;;;3.40;1.60;;;18.50;98.80;;;;;;4991888;28;20445;-73
2022/07/30 03:24:50;;;;;;;3.00;1.93;;;18.50;99.20;;;;;;4999255;28;20427;-72
2022/07/30 03:27:17;;;;;;;1.93;1.67;;;18.50;98.90;;;;;;4992725;28;20504;-73
2022/07/30 03:29:44;;;;;;;2.13;1.80;;;18.50;99.10;;;;;;4991912;28;20415;-73
2022/07/30 03:32:11;;;;;;;2.50;1.80;;;18.50;99.20;;;;;;4991487;28;20438;-73
2022/07/30 03:34:37;;;;;;;1.93;1.60;;;18.40;99.40;;;;;;4992397;28;20422;-72
2022/07/30 03:37:04;;;;;;;2.13;1.70;;;18.40;99.60;;;;;;4995177;28;20889;-72
2022/07/30 03:39:32;;;;;;;1.80;1.50;;;18.40;99.70;;;;;;4993922;28;20187;-73
2022/07/30 03:41:58;;;;;;;2.00;1.90;;;18.40;99.80;;;;;;4994947;28;20828;-72
2022/07/30 03:44:24;;;;;;;2.13;1.53;;;18.30;99.90;;;;;;4994975;28;20443;-72
2022/07/30 03:46:51;;;;;;;1.70;1.30;;;18.30;99.90;;;;;;4994856;28;20259;-72
2022/07/30 03:49:17;;;;;;;4.67;2.63;;;18.30;99.90;;;;;;4995044;28;20169;-72
2022/07/30 03:51:45;;;;;;;6.10;3.00;;;18.30;99.90;;;;;;4995094;28;20450;-72
2022/07/30 03:54:11;;;;;;;3.27;2.17;;;18.30;99.90;;;;;;4993546;28;20423;-74
2022/07/30 03:56:37;;;;;;;2.30;1.77;;;18.30;99.90;;;;;;4994537;28;20425;-72
2022/07/30 03:59:03;;;;;;;2.70;1.70;;;18.30;99.90;;;;;;4994809;28;20402;-72
2022/07/30 04:01:29;;;;;;;6.00;1.90;;;18.30;99.90;;;;;;4994539;28;20456;-73
2022/07/30 04:04:02;;;;;;;3.30;1.83;;;18.30;99.90;;;;;;4994728;28;20443;-73
2022/07/30 04:06:28;;;;;;;2.70;2.23;;;18.30;99.90;;;;;;4994258;28;20220;-72
2022/07/30 04:08:53;;;;;;;2.70;1.53;;;18.30;99.90;;;;;;4994507;28;20415;-72
2022/07/30 04:11:19;;;;;;;1.60;1.47;;;18.40;99.90;;;;;;4994276;28;20290;-73
2022/07/30 04:13:44;;;;;;;3.30;1.93;;;18.40;99.90;;;;;;4994586;28;20176;-72
2022/07/30 04:16:21;;;;;;;1.90;1.40;;;18.40;99.90;;;;;;4994233;28;20191;-72
2022/07/30 04:18:50;;;;;;;3.87;1.57;;;18.40;99.90;;;;;;4994403;28;20453;-73
2022/07/30 04:21:19;;;;;;;1.77;1.23;;;18.40;99.90;;;;;;4994419;28;20455;-73
2022/07/30 04:23:48;;;;;;;5.23;1.83;;;18.40;99.90;;;;;;4994358;28;20416;-72
2022/07/30 04:26:15;;;;;;;1.43;1.33;;;18.40;99.90;;;;;;4993859;28;20451;-72
2022/07/30 04:28:40;;;;;;;3.57;1.73;;;18.40;99.90;;;;;;4994184;28;20945;-72
2022/07/30 04:31:06;;;;;;;2.63;1.50;;;18.40;99.90;;;;;;4994209;28;20522;-72
2022/07/30 04:33:32;;;;;;;1.30;1.20;;;18.40;99.90;;;;;;4993965;28;20220;-73
2022/07/30 04:35:58;;;;;;;2.20;1.53;;;18.50;99.90;;;;;;4994008;28;20414;-72
2022/07/30 04:38:23;;;;;;;2.07;1.40;;;18.50;99.90;;;;;;4994118;28;20177;-72
2022/07/30 04:40:49;;;;;;;1.87;1.53;;;18.60;99.90;;;;;;4993649;28;20203;-72
2022/07/30 04:43:15;;;;;;;2.20;1.50;;;18.60;99.90;;;;;;4994037;28;20183;-72
2022/07/30 04:45:41;;;;;;;1.47;1.20;;;18.50;99.90;;;;;;4993015;28;20504;-72
2022/07/30 04:48:07;;;;;;;2.30;1.80;;;18.60;99.90;;;;;;4994084;28;20412;-72
2022/07/30 04:50:34;;;;;;;2.63;1.67;;;18.60;99.90;;;;;;4993568;28;20408;-73
2022/07/30 04:53:01;;;;;;;1.70;1.60;;;18.60;99.90;;;;;;4993628;28;20184;-72
2022/07/30 04:55:27;;;;;;;3.30;2.43;;;18.70;99.90;;;;;;4993189;28;20411;-72
2022/07/30 04:57:55;;;;;;;3.40;2.10;;;18.70;99.90;;;;;;4993538;28;20412;-73
2022/07/30 05:00:20;;;;;;;1.83;1.47;;;18.70;99.90;;;;;;4993566;28;20182;-73
2022/07/30 05:02:49;;;;;;;1.83;1.43;;;18.80;99.90;;;;;;4993638;28;20741;-72
2022/07/30 05:05:16;;;;;;;2.30;1.37;;;18.70;99.90;;;;;;4993485;28;20255;-72
2022/07/30 05:07:43;;;;;;;1.30;1.20;;;18.70;99.90;;;;;;4993530;28;20444;-72
2022/07/30 05:10:11;;;;;;;1.20;1.10;;;18.70;99.90;;;;;;4995706;28;20419;-72
2022/07/30 05:12:37;;;;;;;1.43;1.33;;;18.70;99.90;;;;;;5001377;28;20431;-72
2022/07/30 05:15:08;;;;;;;2.03;1.83;;;18.70;99.90;;;;;;4996532;28;20764;-72
2022/07/30 05:17:34;;;;;;;1.77;1.37;;;18.80;99.90;;;;;;4991548;28;20419;-72
2022/07/30 05:19:59;;;;;;;1.40;1.30;;;18.80;99.90;;;;;;4993281;28;20440;-73
2022/07/30 05:22:28;;;;;;;2.40;1.30;;;19.00;99.90;;;;;;4993473;28;20541;-73
2022/07/30 05:24:57;;;;;;;2.30;1.50;;;18.90;99.90;;;;;;4993660;28;20295;-72
2022/07/30 05:27:23;;;;;;;4.40;1.30;;;19.00;99.90;;;;;;4993598;28;20488;-73
2022/07/30 05:29:48;;;;;;;1.93;1.53;;;19.00;99.90;;;;;;4992290;28;20519;-72
2022/07/30 05:32:14;;;;;;;1.67;1.47;;;19.10;99.90;;;;;;4992843;28;20252;-73
2022/07/30 05:34:40;;;;;;;1.90;1.67;;;19.10;99.90;;;;;;4992762;28;20209;-72
2022/07/30 05:37:05;;;;;;;1.97;1.37;;;19.20;99.90;;;;;;4992993;28;20260;-72
2022/07/30 05:39:31;;;;;;;3.33;1.43;;;19.20;99.90;;;;;;4992589;28;20185;-72
2022/07/30 05:41:57;;;;;;;3.47;1.73;;;19.30;99.90;;;;;;4992450;28;20200;-72
2022/07/30 05:44:22;;;;;;;1.50;1.40;;;19.40;99.90;;;;;;4992600;28;20454;-72
2022/07/30 05:46:48;;;;;;;1.30;1.10;;;19.40;99.90;;;;;;4992086;28;20255;-72
2022/07/30 05:49:14;;;;;;;2.30;1.63;;;19.60;99.90;;;;;;4992556;28;20173;-73
2022/07/30 05:51:40;;;;;;;3.00;1.33;;;19.60;99.90;;;;;;4992901;28;20189;-73
2022/07/30 05:54:06;;;;;;;2.13;1.20;;;19.60;99.90;;;;;;4992393;28;20504;-73
2022/07/30 05:56:31;;;;;;;1.67;1.30;;;19.60;99.90;;;;;;4992083;28;20503;-72
2022/07/30 05:58:57;;;;;;;1.63;1.53;;;19.70;99.90;;;;;;4991370;28;20227;-73
2022/07/30 06:01:22;;;;;;;1.87;1.50;;;20.10;99.90;;;;;;4992335;28;20194;-72
2022/07/30 06:03:48;;;;;;;2.60;1.73;;;20.10;99.90;;;;;;4992404;28;20189;-72
2022/07/30 06:06:13;;;;;;;2.13;1.30;;;20.10;99.90;;;;;;4991964;28;20195;-73
2022/07/30 06:08:39;;;;;;;1.90;1.50;;;20.30;99.90;;;;;;4992260;28;20302;-73
2022/07/30 06:11:07;;;;;;;2.30;1.40;;;20.30;99.90;;;;;;4992531;28;20192;-73
2022/07/30 06:13:33;;;;;;;1.97;1.80;;;20.20;99.90;;;;;;4992611;28;20183;-73
2022/07/30 06:15:59;;;;;;;3.13;1.40;;;20.10;99.90;;;;;;4992017;28;20418;-73
2022/07/30 06:18:24;;;;;;;3.13;1.77;;;20.40;99.90;;;;;;4992140;28;20181;-72
2022/07/30 06:20:53;;;;;;;4.50;1.33;;;20.50;99.90;;;;;;4991857;28;20216;-74
2022/07/30 06:23:19;;;;;;;1.53;1.30;;;20.40;99.90;;;;;;4992071;28;20629;-72
2022/07/30 06:25:46;;;;;;;1.60;1.50;;;20.60;99.90;;;;;;4991541;28;20467;-73
2022/07/30 06:28:12;;;;;;;2.47;1.50;;;20.80;99.90;;;;;;4991872;28;20891;-72
2022/07/30 06:30:39;;;;;;;3.70;1.33;;;20.80;99.70;;;;;;4991674;28;20503;-72
2022/07/30 06:33:05;;;;;;;1.97;1.40;;;20.90;99.90;;;;;;4991882;28;20779;-73
2022/07/30 06:35:30;;;;;;;2.73;1.40;;;21.10;99.60;;;;;;4991611;28;20414;-72
2022/07/30 06:37:56;;;;;;;1.57;1.23;;;21.40;98.90;;;;;;4991861;28;20549;-72
2022/07/30 06:40:22;;;;;;;4.43;1.10;;;21.80;98.50;;;;;;4991922;28;20192;-72
2022/07/30 06:42:48;;;;;;;1.60;1.40;;;21.90;97.60;;;;;;4991718;28;20674;-73
2022/07/30 06:45:13;;;;;;;5.03;1.20;;;21.80;97.50;;;;;;4991679;28;20554;-72
2022/07/30 06:47:39;;;;;;;2.03;1.50;;;21.80;97.90;;;;;;4991674;28;20182;-72
2022/07/30 06:50:06;;;;;;;1.73;1.57;;;22.00;97.30;;;;;;4991542;28;20180;-72
2022/07/30 06:52:32;;;;;;;1.53;1.40;;;21.50;97.80;;;;;;4991472;28;20200;-72
2022/07/30 06:54:57;;;;;;;1.43;1.00;;;21.80;97.90;;;;;;4991320;28;20467;-73
2022/07/30 06:57:23;;;;;;;1.30;1.10;;;21.90;97.60;;;;;;4992275;28;20175;-72
2022/07/30 06:59:48;;;;;;;1.33;1.23;;;22.00;97.50;;;;;;5000053;28;20186;-72
2022/07/30 07:02:14;;;;;;;1.40;1.30;;;22.10;97.70;;;;;;4997096;28;20198;-72
2022/07/30 07:04:39;;;;;;;1.50;1.27;;;22.40;97.00;;;;;;4993597;28;20182;-71
2022/07/30 07:07:05;;;;;;;4.30;1.30;;;22.40;97.00;;;;;;4992592;28;20208;-72
2022/07/30 07:09:30;;;;;;;3.90;1.60;;;22.20;97.10;;;;;;4992621;28;20180;-72
2022/07/30 07:11:56;;;;;;;3.37;1.30;;;22.40;96.90;;;;;;4995442;28;20290;-72
2022/07/30 07:14:21;;;;;;;5.00;1.30;;;22.70;96.60;;;;;;4995600;28;20543;-72
2022/07/30 07:16:48;;;;;;;1.23;1.10;;;22.40;97.20;;;;;;4995655;28;20199;-72
2022/07/30 07:19:14;;;;;;;3.17;1.17;;;22.80;96.50;;;;;;4995486;28;20230;-72
2022/07/30 07:21:39;;;;;;;1.47;1.37;;;22.80;96.70;;;;;;4995948;28;20940;-72
2022/07/30 07:24:05;;;;;;;4.03;2.17;;;23.10;95.90;;;;;;4995706;28;20574;-73
2022/07/30 07:26:31;;;;;;;1.30;1.20;;;23.30;96.00;;;;;;4995850;28;20685;-72
2022/07/30 07:28:56;;;;;;;2.83;1.63;;;23.50;95.60;;;;;;4995616;28;20168;-72
2022/07/30 07:31:22;;;;;;;3.53;1.23;;;23.60;95.20;;;;;;4995681;28;20506;-72
2022/07/30 07:33:48;;;;;;;1.70;1.30;;;23.40;95.00;;;;;;4995383;28;20678;-73
2022/07/30 07:36:14;;;;;;;1.47;1.30;;;22.70;95.80;;;;;;4995040;28;20197;-74
2022/07/30 07:38:39;;;;;;;4.90;1.40;;;22.80;96.40;;;;;;4993773;28;20176;-72
2022/07/30 07:41:05;;;;;;;1.37;1.23;;;22.90;96.00;;;;;;4995257;28;20424;-73
2022/07/30 07:43:31;;;;;;;2.23;1.50;;;22.40;96.50;;;;;;4995523;28;20172;-73
2022/07/30 07:45:57;;;;;;;1.40;1.30;;;22.30;96.80;;;;;;4995152;28;20289;-74
2022/07/30 07:48:23;;;;;;;1.33;1.23;;;22.60;96.50;;;;;;4994914;28;20459;-72
2022/07/30 07:50:48;;;;;;;2.40;1.10;;;23.20;96.00;;;;;;4994815;28;20400;-72
2022/07/30 07:53:14;;;;;;;3.33;1.47;;;22.70;96.00;;;;;;4994820;28;20192;-72
2022/07/30 07:55:40;;;;;;;1.20;1.10;;;23.10;96.00;;;;;;4994852;28;20274;-72
2022/07/30 07:58:05;;;;;;;1.73;1.40;;;23.10;95.70;;;;;;4994791;28;20176;-71
2022/07/30 08:00:31;;;;;;;2.00;1.10;;;23.30;95.80;;;;;;4994564;28;20171;-71
2022/07/30 08:02:56;;;;;;;1.70;1.30;;;23.30;95.50;;;;;;4994382;28;20172;-71
2022/07/30 08:05:22;;;;;;;1.30;1.20;;;23.20;95.60;;;;;;4994141;28;20165;-72
2022/07/30 08:07:49;;;;;;;2.07;1.17;;;23.20;95.10;;;;;;4994402;28;20173;-72
2022/07/30 08:10:15;;;;;;;2.03;1.40;;;22.90;95.50;;;;;;4994521;28;20892;-72
2022/07/30 08:12:41;;;;;;;1.50;1.40;;;22.50;96.30;;;;;;4994647;28;20545;-72
2022/07/30 08:15:08;;;;;;;1.60;1.50;;;22.60;96.50;;;;;;4994205;28;20717;-72
2022/07/30 08:17:39;;;;;;;1.40;1.30;;;23.50;95.60;;;;;;4994479;28;20453;-72
2022/07/30 08:20:06;;;;;;;1.47;1.33;;;23.50;95.30;;;;;;4994176;28;20459;-72
2022/07/30 08:22:31;;;;;;;1.90;1.33;;;23.50;95.60;;;;;;4993095;28;20437;-72
2022/07/30 08:24:57;;;;;;;2.50;1.40;;;23.30;95.80;;;;;;4994118;28;20420;-72
2022/07/30 08:27:22;;;;;;;1.40;1.30;;;23.50;95.70;;;;;;4994242;28;20221;-73
2022/07/30 08:29:48;;;;;;;2.30;1.30;;;23.60;95.20;;;;;;4994170;28;20172;-72
2022/07/30 08:32:13;;;;;;;1.90;1.50;;;23.70;95.00;;;;;;4994331;28;20186;-73
2022/07/30 08:34:39;;;;;;;1.70;1.37;;;24.10;94.80;;;;;;4994924;28;20275;-73
2022/07/30 08:37:04;;;;;;;2.90;1.60;;;24.00;94.60;;;;;;4995988;28;20184;-73
2022/07/30 08:39:30;;;;;;;1.30;1.20;;;23.80;94.70;;;;;;4994598;28;20176;-73
2022/07/30 08:41:57;;;;;;;1.93;1.80;;;23.70;94.80;;;;;;4994097;28;20227;-73
2022/07/30 08:44:25;;;;;;;2.93;1.37;;;23.80;94.90;;;;;;4994606;28;20261;-73
2022/07/30 08:46:55;;;;;;;1.30;1.10;;;23.60;95.20;;;;;;4997665;28;20437;-73
2022/07/30 08:49:21;;;;;;;1.60;1.50;;;24.00;94.80;;;;;;4996346;28;20410;-72
2022/07/30 08:51:50;;;;;;;2.83;1.60;;;24.00;94.60;;;;;;4993957;28;20563;-73
2022/07/30 08:54:18;;;;;;;1.50;1.10;;;24.50;93.70;;;;;;4993886;28;20507;-72
2022/07/30 08:56:44;;;;;;;1.40;1.30;;;24.20;94.30;;;;;;4992692;28;20757;-72
2022/07/30 08:59:10;;;;;;;2.37;1.27;;;24.50;93.30;;;;;;4993948;28;20937;-73
2022/07/30 09:01:36;;;;;;;1.60;1.50;;;24.40;93.40;;;;;;4993689;28;20588;-72
2022/07/30 09:04:02;;;;;;;1.40;1.20;;;23.80;94.20;;;;;;4993531;28;20412;-72
2022/07/30 09:06:28;;;;;;;1.47;1.30;;;23.50;94.70;;;;;;4993483;28;20453;-72
2022/07/30 09:08:54;;;;;;;1.90;1.33;;;23.50;95.10;;;;;;4993711;28;20927;-72
2022/07/30 09:11:20;;;;;;;1.60;1.50;;;23.90;94.40;;;;;;4993910;28;20192;-73
2022/07/30 09:13:46;;;;;;;3.50;1.50;;;24.50;93.80;;;;;;4993708;28;20213;-72
2022/07/30 09:16:24;;;;;;;2.00;1.30;;;24.50;93.60;;;;;;4993053;28;20917;-72
2022/07/30 09:18:52;;;;;;;1.70;1.60;;;24.60;93.70;;;;;;4993451;28;20218;-71
2022/07/30 09:21:23;;;;;;;2.10;1.03;;;25.10;93.40;;;;;;4993746;28;20477;-72
2022/07/30 09:24:10;;;;;;;3.27;1.50;;;25.00;92.80;;;;;;4993602;28;20916;-72
2022/07/30 09:26:59;;;;;;;2.03;1.93;;;24.90;92.80;;;;;;4993235;28;20925;-72
2022/07/30 09:29:26;;;;;;;2.73;1.10;;;25.10;92.50;;;;;;4993650;28;20773;-73
2022/07/30 09:31:56;;;;;;;3.57;1.77;;;25.10;92.50;;;;;;4993189;28;20493;-72
2022/07/30 09:34:28;;;;;;;3.07;1.53;;;24.10;93.70;;;;;;4993179;28;20412;-72
2022/07/30 09:36:56;;;;;;;1.50;1.40;;;24.60;93.60;;;;;;4993174;28;20957;-73
2022/07/30 09:39:37;;;;;;;1.57;1.43;;;24.70;93.10;;;;;;4992992;28;20410;-72
2022/07/30 09:42:16;;;;;;;2.40;1.63;;;24.60;93.30;;;;;;4993211;28;20459;-72
2022/07/30 09:44:42;;;;;;;1.80;1.40;;;24.90;93.00;;;;;;4993324;28;20959;-72
2022/07/30 09:47:07;;;;;;;1.40;1.10;;;25.40;91.80;;;;;;4993197;28;20542;-72
2022/07/30 09:49:33;;;;;;;2.50;1.37;;;25.30;91.80;;;;;;4993126;28;20175;-73
2022/07/30 09:51:59;;;;;;;1.93;1.30;;;25.10;92.30;;;;;;4992912;28;20202;-74
2022/07/30 09:54:47;;;;;;;1.90;1.47;;;25.10;92.30;;;;;;4993057;28;20409;-73
2022/07/30 09:57:13;;;;;;;1.40;1.30;;;24.80;92.20;;;;;;4993192;28;20178;-72
2022/07/30 09:59:39;;;;;;;1.40;1.30;;;25.10;91.80;;;;;;4992918;28;20407;-72
2022/07/30 10:02:04;;;;;;;2.00;1.40;;;25.10;91.80;;;;;;4992977;28;20557;-72
2022/07/30 10:04:31;;;;;;;1.70;1.60;;;24.90;92.40;;;;;;4992548;28;20715;-72
2022/07/30 10:06:58;;;;;;;4.33;1.40;;;24.90;92.40;;;;;;4993201;28;20198;-72
2022/07/30 10:09:33;;;;;;;2.13;1.50;;;25.10;92.60;;;;;;4992904;28;20415;-72
2022/07/30 10:12:00;;;;;;;1.57;1.20;;;25.20;92.60;;;;;;4992800;28;20859;-72
2022/07/30 10:14:33;;;;;;;1.40;1.30;;;25.60;91.80;;;;;;4993072;28;20821;-72
2022/07/30 10:17:00;;;;;;;2.03;1.47;;;25.80;91.70;;;;;;4992989;28;20500;-72
2022/07/30 10:19:26;;;;;;;4.50;2.40;;;26.00;91.40;;;;;;4994417;28;20411;-71
2022/07/30 10:21:56;;;;;;;1.80;1.53;;;25.70;91.60;;;;;;4994676;28;20441;-72
2022/07/30 10:24:23;;;;;;;1.60;1.50;;;25.90;91.30;;;;;;4992937;28;20435;-72
2022/07/30 10:26:50;;;;;;;4.50;1.30;;;26.10;90.90;;;;;;4992689;28;20459;-72
2022/07/30 10:29:17;;;;;;;1.63;1.53;;;25.90;90.70;;;;;;4992810;28;20635;-72
2022/07/30 10:31:47;;;;;;;2.13;1.30;;;25.80;90.70;;;;;;4993462;28;20430;-73
2022/07/30 10:34:15;;;;;;;1.40;1.30;;;26.10;90.80;;;;;;4998279;28;20924;-72
2022/07/30 10:36:43;;;;;;;3.20;1.20;;;26.00;90.60;;;;;;4995308;28;20532;-72
2022/07/30 10:39:12;;;;;;;1.70;1.57;;;25.70;90.80;;;;;;4991073;28;20795;-73
2022/07/30 10:42:20;;;;;;;2.33;2.13;;;26.10;90.80;;;;;;4992287;28;20531;-73
2022/07/30 10:45:02;;;;;;;1.30;1.20;;;25.80;90.70;;;;;;4992812;28;20422;-72
2022/07/30 10:47:29;;;;;;;1.13;1.03;;;25.90;90.50;;;;;;4998362;28;20533;-72
2022/07/30 10:50:14;;;;;;;1.70;1.53;;;26.10;89.80;;;;;;4998902;28;20413;-72
2022/07/30 10:52:44;;;;;;;1.63;1.20;;;26.20;90.00;;;;;;4999206;28;20784;-72
2022/07/30 10:55:14;;;;;;;1.47;1.37;;;26.20;90.00;;;;;;4998888;28;20440;-72
2022/07/30 10:57:59;;;;;;;1.37;1.27;;;26.20;89.20;;;;;;4999010;28;20402;-72
2022/07/30 11:00:26;;;;;;;1.33;1.23;;;25.80;89.40;;;;;;4998953;28;20577;-72
2022/07/30 11:03:11;;;;;;;1.40;1.30;;;26.10;89.00;;;;;;4998696;28;20432;-74
2022/07/30 11:05:36;;;;;;;3.47;1.17;;;26.30;87.60;;;;;;4998434;28;20848;-72
2022/07/30 11:08:32;;;;;;;1.40;1.30;;;26.20;86.40;;;;;;4998997;28;20407;-74
2022/07/30 11:10:59;;;;;;;1.10;1.00;;;25.90;86.10;;;;;;4996109;28;20204;-71
2022/07/30 11:13:51;;;;;;;1.43;1.33;;;26.20;86.50;;;;;;4998855;28;20409;-72
2022/07/30 11:16:20;;;;;;;1.10;1.00;;;26.50;84.00;;;;;;4998501;28;20777;-71
2022/07/30 11:19:05;;;;;;;3.83;1.20;;;26.50;84.10;;;;;;4998768;28;20434;-72
2022/07/30 11:21:32;;;;;;;1.60;1.50;;;26.50;83.20;;;;;;4998396;28;20582;-73
2022/07/30 11:23:58;;;;;;;1.33;1.00;;;26.20;82.60;;;;;;4998827;28;20554;-73
2022/07/30 11:26:40;;;;;;;1.73;1.20;;;26.10;83.70;;;;;;4998433;28;20936;-73
2022/07/30 11:29:07;;;;;;;1.47;1.37;;;26.50;83.40;;;;;;4998614;28;20434;-73
2022/07/30 11:31:37;;;;;;;1.00;0.90;;;26.70;82.60;;;;;;4998343;28;20425;-72
2022/07/30 11:34:18;;;;;;;1.60;1.20;;;26.80;81.50;;;;;;4998254;28;20899;-72
2022/07/30 11:37:04;;;;;;;1.17;1.07;;;26.80;81.80;;;;;;4998183;28;20440;-73
2022/07/30 11:39:56;;;;;;;2.73;1.00;;;26.90;80.70;;;;;;4998300;28;20425;-73
2022/07/30 11:42:38;;;;;;;1.40;1.20;;;26.70;80.00;;;;;;4991615;28;20962;-73
2022/07/30 11:45:17;;;;;;;1.77;1.20;;;26.70;79.80;;;;;;4998174;28;20412;-73
2022/07/30 11:47:51;;;;;;;1.73;1.50;;;26.90;80.20;;;;;;4998425;28;20413;-72
2022/07/30 11:50:30;;;;;;;3.17;1.13;;;26.70;77.60;;;;;;4998489;28;20890;-72
2022/07/30 11:52:59;;;;;;;1.27;1.00;;;26.80;78.20;;;;;;4998484;28;20403;-72
2022/07/30 11:55:33;;;;;;;1.63;1.13;;;26.60;76.20;;;;;;4997287;28;20392;-73
2022/07/30 11:58:01;;;;;;;1.97;1.30;;;26.60;77.70;;;;;;4995213;28;20939;-73
2022/07/30 12:00:53;;;;;;;1.13;1.03;;;26.50;78.40;;;;;;4994890;28;20927;-73
2022/07/30 12:03:21;;;;;;;1.23;1.13;;;26.50;77.80;;;;;;4993836;28;20426;-72
2022/07/30 12:05:47;;;;;;;0.90;0.90;;;26.70;78.00;;;;;;4994817;28;20857;-73
2022/07/30 12:08:14;;;;;;;2.90;1.17;;;27.10;77.80;;;;;;4993628;28;20467;-73
2022/07/30 12:10:40;;;;;;;1.17;0.90;;;27.30;77.80;;;;;;4994678;28;21009;-72
2022/07/30 12:13:10;;;;;;;1.10;1.00;;;26.90;77.20;;;;;;4995448;28;20400;-72
2022/07/30 12:15:39;;;;;;;4.50;0.97;;;26.70;76.40;;;;;;4994600;28;20437;-72
2022/07/30 12:18:06;;;;;;;1.90;1.10;;;26.80;77.30;;;;;;4995378;28;20774;-74
2022/07/30 12:20:32;;;;;;;1.80;1.20;;;26.70;76.20;;;;;;4998100;28;20417;-73
2022/07/30 12:22:58;;;;;;;3.63;1.53;;;26.60;74.30;;;;;;4999437;28;20821;-72
2022/07/30 12:25:23;;;;;;;3.50;1.27;;;26.70;74.20;;;;;;4994563;28;20177;-71
2022/07/30 12:27:51;;;;;;;6.83;1.10;;;26.90;73.40;;;;;;4994681;28;20602;-72
2022/07/30 12:30:18;;;;;;;2.47;1.40;;;26.80;72.90;;;;;;4994411;28;20248;-72
2022/07/30 12:32:44;;;;;;;1.37;1.10;;;26.80;73.60;;;;;;4994598;28;20440;-73
2022/07/30 12:35:10;;;;;;;3.83;1.20;;;26.90;72.40;;;;;;4994420;28;20959;-72
2022/07/30 12:37:36;;;;;;;3.47;1.23;;;26.60;73.00;;;;;;4994921;28;20407;-72
2022/07/30 12:40:11;;;;;;;1.77;1.20;;;27.10;72.70;;;;;;4994542;28;20906;-73
2022/07/30 12:42:51;;;;;;;1.60;1.23;;;26.90;72.70;;;;;;4994374;28;20434;-71
2022/07/30 12:45:31;;;;;;;1.40;1.30;;;26.80;72.40;;;;;;4994066;28;20453;-73
2022/07/30 12:48:00;;;;;;;2.00;1.20;;;26.80;70.90;;;;;;4994044;28;20423;-73
2022/07/30 12:50:26;;;;;;;4.87;1.23;;;26.80;71.80;;;;;;4994334;28;20414;-72
2022/07/30 12:52:54;;;;;;;1.70;1.43;;;26.70;74.20;;;;;;4993940;28;20949;-73
2022/07/30 12:55:29;;;;;;;4.70;1.20;;;26.90;74.70;;;;;;4993822;28;20414;-72